• Join FlightAware (Why Join?)
  • Login
  • US Flag 
08:11AM EDT


 

Airport Tracker/Info


-or-


 

Live Flight TrackerFlight Track Log ✈ TAM3343 ✈ 18-May-2013 ✈ SBCF / CNF - SBGR / GRU

Flight Track Log - Related Links

Times and Time Zones

All times are in EDT time to prevent confusion due to time zone crossing. See the TAM3343 flight status page for this flight to view local times or setup timezone preferences in your user account.

Time Position Orientation Groundspeed Altitude Reporting Facility
EDT Latitude Longitude Course Direction KTS MPH feet Rate Location/Type
11:40AM -20.6986 -44.6545 211° Southwest  Level Estimated
11:41AM -20.7545 -44.6909 211° Southwest  Level Estimated
11:42AM -20.8105 -44.7272 211° Southwest  Level Estimated
11:43AM -20.8664 -44.7636 211° Southwest  Level Estimated
11:44AM -20.9288 -44.8042 211° Southwest  Level Estimated
11:45AM -20.9912 -44.8449 211° Southwest  Level Estimated
11:46AM -21.0535 -44.8856 211° Southwest  Level Estimated
11:47AM -21.1159 -44.9263 211° Southwest  Level Estimated
11:48AM -21.1782 -44.9670 211° Southwest  Level Estimated
11:49AM -21.2405 -45.0078 211° Southwest  Level Estimated
11:50AM -21.3028 -45.0486 211° Southwest  Level Estimated
11:51AM -21.3651 -45.0895 211° Southwest  Level Estimated
11:52AM -21.4274 -45.1304 211° Southwest  Level Estimated
11:53AM -21.4897 -45.1713 211° Southwest  Level Estimated
11:54AM -21.5520 -45.2123 211° Southwest  Level Estimated
11:55AM -21.6142 -45.2533 211° Southwest  Level Estimated
11:56AM -21.6765 -45.2943 211° Southwest  Level Estimated
11:57AM -21.7387 -45.3353 212° Southwest  Level Estimated
11:58AM -21.8009 -45.3764 212° Southwest  Level Estimated
11:59AM -21.8631 -45.4176 212° Southwest  Level Estimated
12:00PM -21.9254 -45.4588 212° Southwest  Level Estimated
12:01PM -21.9876 -45.5000 212° Southwest  Level Estimated
12:02PM -22.0497 -45.5412 212° Southwest  Level Estimated
12:03PM -22.1119 -45.5825 212° Southwest  Level Estimated
12:04PM -22.1741 -45.6238 212° Southwest  Level Estimated
12:05PM -22.2362 -45.6651 212° Southwest  Level Estimated
12:06PM -22.2984 -45.7065 212° Southwest  Level Estimated
12:07PM -22.3605 -45.7480 212° Southwest  Level Estimated
12:08PM -22.4226 -45.7894 212° Southwest  Level Estimated
12:09PM -22.4847 -45.8309 212° Southwest  Level Estimated
12:10PM -22.5468 -45.8725 212° Southwest  Level Estimated
12:11PM -22.6089 -45.9140 212° Southwest  Level Estimated
12:12PM -22.6710 -45.9557 212° Southwest  Level Estimated
12:13PM -22.7331 -45.9973 212° Southwest  Level Estimated
12:14PM -22.7951 -46.0390 212° Southwest  Level Estimated
12:15PM -22.8572 -46.0807 212° Southwest  Level Estimated
12:16PM -22.9192 -46.1225 212° Southwest  Level Estimated
12:17PM -22.9812 -46.1643 212° Southwest  Level Estimated
12:18PM -23.0432 -46.2061 212° Southwest  Level Estimated
12:19PM -23.1052 -46.2480 212° Southwest  Level Estimated
12:20PM -23.1672 -46.2899 212° Southwest  Level Estimated
12:21PM -23.2292 -46.3319 212° Southwest  Level Estimated
12:22PM -23.2912 -46.3739 212° Southwest  Level Estimated
12:23PM -23.3531 -46.4159 212° Southwest  Level Estimated
12:24PM -23.4151 -46.4580 212° Southwest  Level Estimated
12:25PM -23.4321 -46.4695 212° Southwest  Level Estimated
12:26PM -23.4321 -46.4695 350° North  Level Estimated
12:27PM -23.4321 -46.4695 350° North  Level Estimated
12:28PM -23.4321 -46.4695 350° North  Level Estimated
12:29PM -23.4321 -46.4695 350° North  Level Estimated
12:30PM -23.4321 -46.4695 350° North  Level Estimated
12:31PM -23.4321 -46.4695 350° North  Level Estimated
12:32PM -23.4321 -46.4695 350° North  Level Estimated
12:33PM -23.4321 -46.4695 350° North  Level Estimated
12:34PM -23.4321 -46.4695 350° North  Level Estimated
12:35PM -23.4321 -46.4695 350° North  Level Estimated
12:36PM -23.4321 -46.4695 350° North  Level Estimated
12:37PM -23.4321 -46.4695 350° North  Level Estimated
12:38PM -23.4321 -46.4695 350° North  Level Estimated